Time;durP1;ratioP1;P1;durP2;ratioP2;P2;SDS_P1;SDS_P2;PMS_P1;PMS_P2;Temp;Humidity;BMP_temperature;BMP_pressure;BME280_temperature;BME280_humidity;BME280_pressure;Samples;Min_cycle;Max_cycle;Signal;HPM_P1;HPM_P2
2022/01/15 00:02:15;;;;;;;42.00;16.73;;;7.00;99.90;;;;;;5042526;28;20656;-77
2022/01/15 00:04:41;;;;;;;37.97;15.67;;;7.00;99.90;;;;;;5024165;28;20037;-78
2022/01/15 00:07:07;;;;;;;40.13;15.83;;;7.00;99.90;;;;;;5043210;28;20456;-77
2022/01/15 00:09:33;;;;;;;35.70;14.57;;;7.00;99.90;;;;;;5027458;28;20049;-77
2022/01/15 00:11:58;;;;;;;50.10;15.67;;;7.00;99.90;;;;;;5017862;28;20049;-77
2022/01/15 00:14:31;;;;;;;42.43;15.57;;;7.00;99.90;;;;;;5063044;28;20048;-77
2022/01/15 00:17:04;;;;;;;37.17;14.23;;;7.00;99.90;;;;;;5047803;28;20425;-77
2022/01/15 00:19:41;;;;;;;37.35;14.35;;;7.10;99.90;;;;;;5050177;28;20041;-77
2022/01/15 00:22:08;;;;;;;48.50;16.90;;;7.00;99.90;;;;;;5036155;28;20052;-77
2022/01/15 00:24:33;;;;;;;33.93;14.83;;;7.00;99.90;;;;;;5010219;28;20049;-78
2022/01/15 00:26:59;;;;;;;50.00;15.90;;;7.00;99.90;;;;;;5036797;28;20047;-77
2022/01/15 00:29:29;;;;;;;33.97;14.43;;;7.00;99.90;;;;;;5007992;28;20064;-77
2022/01/15 00:31:55;;;;;;;37.27;13.93;;;7.00;99.90;;;;;;5030274;28;20449;-77
2022/01/15 00:34:21;;;;;;;36.17;14.63;;;7.00;99.90;;;;;;5037296;28;20090;-77
2022/01/15 00:36:46;;;;;;;29.50;13.07;;;7.00;99.90;;;;;;5028646;28;20072;-77
2022/01/15 00:39:12;;;;;;;31.83;12.23;;;7.00;99.90;;;;;;5052664;28;20139;-78
2022/01/15 00:41:38;;;;;;;30.00;11.60;;;7.00;99.90;;;;;;5045027;28;20457;-77
2022/01/15 00:44:04;;;;;;;39.13;13.27;;;7.00;99.90;;;;;;5033986;28;20399;-77
2022/01/15 00:46:31;;;;;;;41.20;14.00;;;7.00;99.90;;;;;;5052015;28;20087;-77
2022/01/15 00:48:57;;;;;;;41.37;14.37;;;7.00;99.90;;;;;;5027207;28;20084;-77
2022/01/15 00:51:24;;;;;;;32.00;12.63;;;7.00;99.90;;;;;;5034771;28;20073;-77
2022/01/15 00:53:50;;;;;;;28.03;12.13;;;7.00;99.90;;;;;;5029024;28;20060;-77
2022/01/15 00:56:16;;;;;;;37.97;13.30;;;7.00;99.90;;;;;;5034520;28;20498;-77
2022/01/15 00:58:41;;;;;;;35.13;12.87;;;6.90;99.90;;;;;;5035399;28;20037;-77
2022/01/15 01:01:07;;;;;;;40.63;14.07;;;6.90;99.90;;;;;;5022549;28;20387;-76
2022/01/15 01:03:34;;;;;;;40.93;14.10;;;6.90;99.90;;;;;;5034078;28;20041;-77
2022/01/15 01:06:00;;;;;;;46.17;14.07;;;6.90;99.90;;;;;;5028047;28;20049;-77
2022/01/15 01:08:26;;;;;;;38.43;12.77;;;6.90;99.90;;;;;;5032337;28;20072;-77
2022/01/15 01:10:57;;;;;;;44.53;12.57;;;6.90;99.90;;;;;;5053271;28;20048;-76
2022/01/15 01:13:42;;;;;;;26.77;11.43;;;7.00;99.90;;;;;;5024545;28;20053;-77
2022/01/15 01:24:21;;;;;;;11.17;6.13;;;6.90;99.90;;;;;;5023215;28;20132;-77
2022/01/15 01:26:54;;;;;;;9.17;5.50;;;6.90;99.90;;;;;;5031315;28;20387;-77
2022/01/15 01:29:47;;;;;;;9.65;5.43;;;6.90;99.90;;;;;;5031224;28;20033;-77
2022/01/15 01:33:00;;;;;;;10.43;5.43;;;6.90;99.90;;;;;;5048357;28;20067;-77
2022/01/15 01:35:10;;;;;;;10.57;5.03;;;6.90;99.90;;;;;;5037651;28;20045;-77
2022/01/15 01:37:41;;;;;;;9.67;4.57;;;6.90;99.90;;;;;;5008890;28;20071;-77
2022/01/15 01:42:52;;;;;;;8.43;4.77;;;6.90;99.90;;;;;;5039461;28;20118;-77
2022/01/15 01:45:18;;;;;;;6.23;3.63;;;6.90;99.90;;;;;;5030067;28;20513;-77
2022/01/15 01:47:44;;;;;;;5.97;3.37;;;6.90;99.90;;;;;;5047014;28;20106;-77
2022/01/15 01:50:14;;;;;;;3.47;2.37;;;6.90;99.90;;;;;;5041460;28;20076;-77
2022/01/15 01:52:43;;;;;;;2.93;2.33;;;6.90;99.90;;;;;;5027293;28;20049;-77
2022/01/15 01:55:10;;;;;;;3.00;2.40;;;6.90;99.90;;;;;;5013194;28;20041;-76
2022/01/15 01:57:36;;;;;;;2.93;2.30;;;6.90;99.90;;;;;;5023829;28;20510;-77
2022/01/15 02:00:06;;;;;;;5.37;3.17;;;6.90;99.90;;;;;;5030802;28;20048;-77
2022/01/15 02:02:32;;;;;;;5.07;3.23;;;6.90;99.90;;;;;;5032932;28;20044;-77
2022/01/15 02:04:58;;;;;;;5.97;3.20;;;6.90;99.90;;;;;;5017258;28;20392;-77
2022/01/15 02:07:26;;;;;;;5.70;3.17;;;6.90;99.90;;;;;;5025523;28;20033;-77
2022/01/15 02:09:52;;;;;;;8.23;3.37;;;6.90;99.90;;;;;;5050132;28;20049;-76
2022/01/15 02:12:18;;;;;;;5.43;3.27;;;6.90;99.90;;;;;;5047620;28;20467;-77
2022/01/15 02:14:43;;;;;;;4.90;3.10;;;6.90;99.90;;;;;;5045700;28;20124;-77
2022/01/15 02:17:12;;;;;;;6.77;3.77;;;6.90;99.90;;;;;;5009979;28;20541;-76
2022/01/15 02:19:56;;;;;;;7.10;4.30;;;6.90;99.90;;;;;;5023420;28;20055;-77
2022/01/15 02:25:07;;;;;;;7.03;4.47;;;6.90;99.90;;;;;;5029134;28;20049;-78
2022/01/15 02:27:33;;;;;;;10.93;4.83;;;6.80;99.90;;;;;;5031896;28;20033;-77
2022/01/15 02:30:03;;;;;;;7.60;4.03;;;6.90;99.90;;;;;;5041356;28;20044;-77
2022/01/15 02:32:30;;;;;;;7.73;4.13;;;6.80;99.90;;;;;;5025519;28;20102;-77
2022/01/15 02:34:57;;;;;;;5.93;4.23;;;6.80;99.90;;;;;;5028269;28;20125;-77
2022/01/15 02:37:23;;;;;;;7.90;4.77;;;6.80;99.90;;;;;;5011441;28;20037;-77
2022/01/15 02:39:49;;;;;;;6.83;4.13;;;6.80;99.90;;;;;;5041917;28;20498;-77
2022/01/15 02:42:14;;;;;;;7.53;3.87;;;6.80;99.90;;;;;;5014109;28;20049;-77
2022/01/15 02:44:43;;;;;;;5.80;3.50;;;6.80;99.90;;;;;;5025157;28;20069;-77
2022/01/15 02:49:35;;;;;;;7.90;3.70;;;6.80;99.90;;;;;;5041784;28;20053;-77
2022/01/15 02:52:02;;;;;;;5.87;3.70;;;6.80;99.90;;;;;;5048658;28;20040;-77
2022/01/15 02:54:29;;;;;;;5.97;3.40;;;6.80;99.90;;;;;;5035372;28;20053;-77
2022/01/15 02:56:55;;;;;;;5.63;3.53;;;6.80;99.90;;;;;;5022563;28;20044;-78
2022/01/15 02:59:24;;;;;;;6.53;3.80;;;6.80;99.90;;;;;;5041982;28;20548;-77
2022/01/15 03:01:50;;;;;;;6.07;3.47;;;6.80;99.90;;;;;;5028312;28;20099;-77
2022/01/15 03:04:16;;;;;;;8.10;3.70;;;6.80;99.90;;;;;;5031530;28;20076;-77
2022/01/15 03:06:42;;;;;;;5.63;3.37;;;6.80;99.90;;;;;;5049405;28;20037;-77
2022/01/15 03:09:09;;;;;;;8.13;3.50;;;6.80;99.90;;;;;;5022553;28;20122;-77
2022/01/15 03:11:35;;;;;;;5.10;3.50;;;6.80;99.90;;;;;;5049797;28;20426;-77
2022/01/15 03:14:01;;;;;;;8.07;3.90;;;6.80;99.90;;;;;;5020797;28;20048;-77
2022/01/15 03:16:27;;;;;;;8.70;4.03;;;6.70;99.90;;;;;;5026775;28;20033;-77
2022/01/15 03:18:53;;;;;;;5.93;3.90;;;6.70;99.90;;;;;;5023315;28;20103;-76
2022/01/15 03:21:19;;;;;;;8.57;3.80;;;6.80;99.90;;;;;;5042602;28;20037;-77
2022/01/15 03:23:45;;;;;;;5.53;3.47;;;6.70;99.90;;;;;;5017190;28;20041;-78
2022/01/15 03:26:13;;;;;;;6.77;3.80;;;6.80;99.90;;;;;;5045576;28;20040;-78
2022/01/15 03:28:40;;;;;;;8.20;3.80;;;6.70;99.90;;;;;;5050505;28;20084;-77
2022/01/15 03:31:05;;;;;;;5.93;3.90;;;6.70;99.90;;;;;;5015613;28;20472;-76
2022/01/15 03:33:32;;;;;;;6.33;3.93;;;6.70;99.90;;;;;;5030191;28;20043;-77
2022/01/15 03:35:57;;;;;;;5.23;3.73;;;6.70;99.90;;;;;;5032811;28;20160;-77
2022/01/15 03:38:23;;;;;;;5.73;3.87;;;6.70;99.90;;;;;;5011210;28;20072;-77
2022/01/15 03:40:51;;;;;;;5.20;3.73;;;6.70;99.90;;;;;;5052676;28;20060;-77
2022/01/15 03:43:19;;;;;;;5.23;3.83;;;6.70;99.90;;;;;;5047602;28;20138;-77
2022/01/15 03:45:44;;;;;;;5.70;3.77;;;6.70;99.90;;;;;;5018225;28;20152;-77
2022/01/15 03:48:10;;;;;;;5.53;3.63;;;6.70;99.90;;;;;;5018396;28;20207;-77
2022/01/15 03:50:36;;;;;;;6.53;4.17;;;6.70;99.90;;;;;;5043079;28;20149;-78
2022/01/15 03:53:02;;;;;;;5.67;3.73;;;6.70;99.90;;;;;;5031339;28;20042;-77
2022/01/15 03:55:28;;;;;;;7.87;4.53;;;6.70;99.90;;;;;;5047971;28;20052;-77
2022/01/15 03:57:54;;;;;;;5.70;3.93;;;6.70;99.90;;;;;;5047659;28;20506;-77
2022/01/15 04:00:24;;;;;;;8.43;4.50;;;6.70;99.90;;;;;;5035965;28;20047;-77
2022/01/15 04:02:51;;;;;;;5.43;3.93;;;6.70;99.90;;;;;;5029373;28;20045;-77
2022/01/15 04:05:17;;;;;;;7.00;4.27;;;6.70;99.90;;;;;;5028263;28;20060;-77
2022/01/15 04:07:43;;;;;;;7.40;4.87;;;6.70;99.90;;;;;;5029540;28;20036;-77
2022/01/15 04:10:11;;;;;;;10.33;4.60;;;6.70;99.90;;;;;;5019033;28;20037;-77
2022/01/15 04:12:37;;;;;;;6.17;4.07;;;6.70;99.90;;;;;;5052686;28;20045;-77
2022/01/15 04:15:04;;;;;;;7.63;4.50;;;6.70;99.90;;;;;;5029271;28;20044;-77
2022/01/15 04:17:31;;;;;;;7.23;4.47;;;6.60;99.90;;;;;;5017885;28;20040;-77
2022/01/15 04:19:58;;;;;;;8.13;4.97;;;6.70;99.90;;;;;;5047655;28;20097;-77
2022/01/15 04:22:24;;;;;;;12.40;5.63;;;6.70;99.90;;;;;;5024825;28;20048;-77
2022/01/15 04:24:50;;;;;;;8.53;5.53;;;6.60;99.90;;;;;;5030815;28;20044;-78
2022/01/15 04:27:16;;;;;;;8.73;5.13;;;6.60;99.90;;;;;;5042930;28;20049;-77
2022/01/15 04:29:41;;;;;;;7.67;4.90;;;6.60;99.90;;;;;;5015852;28;20094;-77
2022/01/15 04:32:08;;;;;;;6.80;4.27;;;6.60;99.90;;;;;;5048298;28;20041;-77
2022/01/15 04:34:35;;;;;;;8.77;4.77;;;6.60;99.90;;;;;;5027292;28;20092;-77
2022/01/15 04:37:08;;;;;;;10.07;5.40;;;6.60;99.90;;;;;;5034468;28;20475;-77
2022/01/15 04:39:35;;;;;;;9.30;4.85;;;6.60;99.90;;;;;;5041744;28;20061;-77
2022/01/15 04:42:00;;;;;;;8.90;4.83;;;6.60;99.90;;;;;;5047716;28;20047;-77
2022/01/15 04:44:26;;;;;;;11.37;6.00;;;6.60;99.90;;;;;;5030733;28;20072;-77
2022/01/15 04:46:52;;;;;;;10.80;6.53;;;6.60;99.90;;;;;;5040924;28;20495;-77
2022/01/15 04:49:18;;;;;;;12.13;6.40;;;6.60;99.90;;;;;;5035475;28;20402;-77
2022/01/15 04:51:45;;;;;;;9.80;6.27;;;6.60;99.90;;;;;;5007253;28;20094;-77
2022/01/15 04:54:11;;;;;;;12.40;6.73;;;6.60;99.90;;;;;;5052108;28;20049;-77
2022/01/15 04:56:37;;;;;;;10.60;6.47;;;6.50;99.90;;;;;;5015552;28;20063;-77
2022/01/15 04:59:03;;;;;;;9.87;6.40;;;6.50;99.90;;;;;;5046791;28;20495;-77
2022/01/15 05:01:28;;;;;;;10.97;6.17;;;6.50;99.90;;;;;;5052874;28;20418;-77
2022/01/15 05:03:54;;;;;;;12.03;6.33;;;6.50;99.90;;;;;;5028653;28;20041;-77
2022/01/15 05:06:20;;;;;;;10.30;6.40;;;6.60;99.90;;;;;;5032600;28;20080;-77
2022/01/15 05:08:51;;;;;;;15.17;7.83;;;6.60;99.90;;;;;;5026341;28;20067;-77
2022/01/15 05:11:30;;;;;;;15.87;7.93;;;6.50;99.90;;;;;;5014187;28;20045;-77
2022/01/15 05:13:56;;;;;;;18.37;9.10;;;6.50;99.90;;;;;;5031344;28;20037;-77
2022/01/15 05:16:22;;;;;;;17.37;8.83;;;6.60;99.90;;;;;;5029572;28;20048;-78
2022/01/15 05:18:48;;;;;;;16.60;8.47;;;6.50;99.90;;;;;;5016804;28;20457;-77
2022/01/15 05:21:14;;;;;;;15.43;7.80;;;6.60;99.90;;;;;;5006403;28;20095;-77
2022/01/15 05:23:39;;;;;;;15.70;7.37;;;6.50;99.90;;;;;;5031509;28;20075;-77
2022/01/15 05:26:06;;;;;;;16.97;7.70;;;6.50;99.90;;;;;;5035390;28;20049;-77
2022/01/15 05:28:32;;;;;;;19.90;8.33;;;6.50;99.90;;;;;;5021633;28;20052;-78
2022/01/15 05:30:58;;;;;;;20.83;7.90;;;6.50;99.90;;;;;;5032193;28;20041;-77
2022/01/15 05:33:23;;;;;;;16.93;7.47;;;6.40;99.90;;;;;;5014204;28;20049;-77
2022/01/15 05:35:49;;;;;;;14.00;7.20;;;6.50;99.90;;;;;;5018319;28;20041;-78
2022/01/15 05:38:15;;;;;;;15.37;6.40;;;6.40;99.90;;;;;;5026166;28;20493;-77
2022/01/15 05:40:40;;;;;;;11.47;6.67;;;6.40;99.90;;;;;;5030309;28;20051;-78
2022/01/15 05:43:07;;;;;;;12.97;6.60;;;6.40;99.90;;;;;;5035080;28;20048;-78
2022/01/15 05:45:33;;;;;;;13.70;6.37;;;6.40;99.90;;;;;;5010859;28;20046;-77
2022/01/15 05:47:59;;;;;;;10.63;5.63;;;6.40;99.90;;;;;;5031383;28;20129;-78
2022/01/15 05:50:25;;;;;;;11.23;6.07;;;6.40;99.90;;;;;;5016782;28;26381;-77
2022/01/15 05:52:50;;;;;;;11.70;5.67;;;6.40;99.90;;;;;;5029535;28;20037;-77
2022/01/15 05:55:16;;;;;;;12.33;6.33;;;6.40;99.90;;;;;;5051263;28;20063;-77
2022/01/15 05:57:42;;;;;;;11.97;6.40;;;6.50;99.90;;;;;;5010890;28;20048;-77
2022/01/15 06:00:09;;;;;;;10.80;6.20;;;6.50;99.90;;;;;;5026284;28;20041;-78
2022/01/15 06:02:41;;;;;;;12.70;5.70;;;6.40;99.90;;;;;;5030056;28;20495;-77
2022/01/15 06:05:07;;;;;;;13.67;6.10;;;6.50;99.90;;;;;;5015589;28;20091;-78
2022/01/15 06:07:33;;;;;;;11.37;5.93;;;6.40;99.90;;;;;;5033168;28;20037;-78
2022/01/15 06:09:59;;;;;;;11.43;5.97;;;6.40;99.90;;;;;;5044637;28;20051;-77
2022/01/15 06:12:30;;;;;;;12.30;6.70;;;6.40;99.90;;;;;;5024292;28;20094;-77
2022/01/15 06:14:56;;;;;;;9.40;5.67;;;6.40;99.90;;;;;;5014041;28;20054;-78
2022/01/15 06:17:23;;;;;;;11.40;5.00;;;6.40;99.90;;;;;;5023474;28;20041;-78
2022/01/15 06:19:49;;;;;;;12.50;6.30;;;6.40;99.90;;;;;;5033586;28;20045;-77
2022/01/15 06:22:14;;;;;;;10.67;5.73;;;6.40;99.90;;;;;;5037773;28;20110;-77
2022/01/15 06:24:40;;;;;;;11.30;6.20;;;6.30;99.90;;;;;;5049366;28;20033;-77
2022/01/15 06:27:08;;;;;;;12.83;6.20;;;6.30;99.90;;;;;;5029041;28;20099;-77
2022/01/15 06:29:34;;;;;;;11.00;5.87;;;6.30;99.90;;;;;;5008107;28;20045;-78
2022/01/15 06:31:59;;;;;;;11.67;5.87;;;6.30;99.90;;;;;;5050061;28;20868;-77
2022/01/15 06:34:26;;;;;;;12.03;6.10;;;6.30;99.90;;;;;;5038142;28;20511;-78
2022/01/15 06:36:52;;;;;;;12.50;6.27;;;6.30;99.90;;;;;;5029645;28;20050;-77
2022/01/15 06:39:18;;;;;;;11.47;5.90;;;6.30;99.90;;;;;;5019550;28;20618;-77
2022/01/15 06:41:44;;;;;;;10.73;6.07;;;6.30;99.90;;;;;;5034583;28;20120;-77
2022/01/15 06:44:09;;;;;;;11.00;6.23;;;6.30;99.90;;;;;;5034542;28;20147;-77
2022/01/15 06:46:35;;;;;;;10.90;5.63;;;6.30;99.90;;;;;;5024457;28;20551;-77
2022/01/15 06:49:01;;;;;;;14.87;6.17;;;6.30;99.90;;;;;;5027917;28;20049;-77
2022/01/15 06:51:28;;;;;;;12.03;6.00;;;6.30;99.90;;;;;;5056922;28;20503;-76
2022/01/15 06:53:53;;;;;;;12.57;5.73;;;6.30;99.90;;;;;;5042452;28;20045;-77
2022/01/15 06:56:19;;;;;;;10.37;5.70;;;6.30;99.90;;;;;;5037906;28;20045;-77
2022/01/15 06:58:46;;;;;;;12.63;5.33;;;6.20;99.90;;;;;;5026563;28;20052;-77
2022/01/15 07:01:12;;;;;;;11.97;6.07;;;6.30;99.90;;;;;;5012568;28;20041;-77
2022/01/15 07:03:37;;;;;;;10.40;5.60;;;6.20;99.90;;;;;;5029483;28;20087;-77
2022/01/15 07:06:03;;;;;;;10.43;5.87;;;6.20;99.90;;;;;;5035782;28;20064;-78
2022/01/15 07:08:30;;;;;;;11.53;5.47;;;6.20;99.90;;;;;;5041107;28;20123;-77
2022/01/15 07:10:56;;;;;;;12.20;5.73;;;6.20;99.90;;;;;;5043750;28;20049;-78
2022/01/15 07:13:21;;;;;;;8.37;5.03;;;6.20;99.90;;;;;;5033893;28;20056;-77
2022/01/15 07:15:47;;;;;;;9.87;5.27;;;6.20;99.90;;;;;;5048544;28;20048;-78
2022/01/15 07:18:14;;;;;;;11.60;5.93;;;6.20;99.90;;;;;;5033634;28;20128;-77
2022/01/15 07:20:40;;;;;;;11.60;6.47;;;6.20;99.90;;;;;;5043456;28;20044;-77
2022/01/15 07:23:06;;;;;;;12.77;6.30;;;6.20;99.90;;;;;;5031714;28;20040;-78
2022/01/15 07:25:33;;;;;;;13.70;7.30;;;6.20;99.90;;;;;;5048653;28;20045;-77
2022/01/15 07:27:58;;;;;;;13.67;6.70;;;6.20;99.90;;;;;;5049192;28;20037;-78
2022/01/15 07:30:25;;;;;;;14.63;7.57;;;6.20;99.90;;;;;;5031958;28;20052;-77
2022/01/15 07:32:50;;;;;;;15.87;7.73;;;6.20;99.90;;;;;;5033759;28;20076;-77
2022/01/15 07:35:16;;;;;;;14.67;7.00;;;6.20;99.90;;;;;;5045431;28;20545;-78
2022/01/15 07:37:44;;;;;;;14.17;7.07;;;6.20;99.90;;;;;;5026184;28;20037;-77
2022/01/15 07:40:10;;;;;;;21.53;8.87;;;6.20;99.90;;;;;;5015628;28;20090;-78
2022/01/15 07:42:39;;;;;;;16.47;8.80;;;6.20;99.90;;;;;;5043795;28;20041;-78
2022/01/15 07:45:07;;;;;;;18.30;8.70;;;6.20;99.90;;;;;;5049304;28;20126;-78
2022/01/15 07:47:33;;;;;;;16.43;8.27;;;6.20;99.90;;;;;;5048355;28;20284;-78
2022/01/15 07:49:58;;;;;;;20.27;10.13;;;6.20;99.90;;;;;;5017644;28;20037;-78
2022/01/15 07:52:24;;;;;;;19.97;10.10;;;6.20;99.90;;;;;;5049021;28;20048;-78
2022/01/15 07:54:50;;;;;;;20.67;10.17;;;6.20;99.90;;;;;;5044645;28;20045;-77
2022/01/15 07:57:16;;;;;;;18.50;9.63;;;6.20;99.90;;;;;;5043865;28;20041;-77
2022/01/15 07:59:43;;;;;;;18.63;9.70;;;6.20;99.90;;;;;;5028642;28;20036;-79
2022/01/15 08:02:08;;;;;;;19.03;10.40;;;6.20;99.90;;;;;;5022514;28;20514;-78
2022/01/15 08:04:34;;;;;;;20.87;11.20;;;6.20;99.90;;;;;;5043387;28;20060;-78
2022/01/15 08:07:00;;;;;;;16.57;9.90;;;6.10;99.90;;;;;;5020096;28;20388;-78
2022/01/15 08:09:25;;;;;;;16.13;9.67;;;6.10;99.90;;;;;;5019418;28;20045;-77
2022/01/15 08:11:51;;;;;;;14.43;8.77;;;6.10;99.90;;;;;;5031202;28;20053;-78
2022/01/15 08:14:17;;;;;;;15.30;9.03;;;6.10;99.90;;;;;;5017786;28;20041;-78
2022/01/15 08:16:44;;;;;;;15.47;8.63;;;6.00;99.90;;;;;;5021623;28;20103;-78
2022/01/15 08:19:10;;;;;;;13.57;8.67;;;6.10;99.90;;;;;;5048901;28;20469;-77
2022/01/15 08:21:35;;;;;;;15.30;9.33;;;6.00;99.90;;;;;;5040916;28;20144;-77
2022/01/15 08:24:01;;;;;;;16.10;9.23;;;6.00;99.90;;;;;;5032145;28;20068;-78
2022/01/15 08:26:27;;;;;;;15.60;8.70;;;6.00;99.90;;;;;;5042516;28;20403;-77
2022/01/15 08:28:53;;;;;;;16.17;8.97;;;6.00;99.90;;;;;;5030888;28;20040;-78
2022/01/15 08:31:20;;;;;;;14.73;8.63;;;6.00;99.90;;;;;;5049789;28;20054;-78
2022/01/15 08:33:47;;;;;;;18.10;9.77;;;6.00;99.90;;;;;;5021831;28;20067;-78
2022/01/15 08:36:13;;;;;;;16.43;9.70;;;6.00;99.90;;;;;;5010771;28;20474;-78
2022/01/15 08:38:38;;;;;;;17.20;9.70;;;6.00;99.90;;;;;;5026962;28;20077;-77
2022/01/15 08:41:04;;;;;;;13.57;8.17;;;5.90;99.90;;;;;;5024979;28;20051;-77
2022/01/15 08:43:30;;;;;;;15.90;9.23;;;6.00;99.90;;;;;;5037428;28;20414;-78
2022/01/15 08:45:55;;;;;;;17.73;9.60;;;6.00;99.90;;;;;;5038115;28;20040;-78
2022/01/15 08:48:21;;;;;;;18.00;9.83;;;5.90;99.90;;;;;;5024383;28;20553;-77
2022/01/15 08:50:49;;;;;;;18.33;10.40;;;5.90;99.90;;;;;;5023103;28;20047;-77
2022/01/15 08:53:17;;;;;;;19.23;10.47;;;5.90;99.90;;;;;;5037374;28;20053;-78
2022/01/15 08:55:43;;;;;;;19.93;9.63;;;5.90;99.90;;;;;;5026337;28;20137;-78
2022/01/15 08:58:09;;;;;;;22.00;11.17;;;5.90;99.90;;;;;;5033095;28;20254;-78
2022/01/15 09:00:34;;;;;;;24.47;11.83;;;5.90;99.90;;;;;;5058290;28;20045;-78
2022/01/15 09:03:00;;;;;;;24.47;11.90;;;5.80;99.90;;;;;;5010746;28;20144;-77
2022/01/15 09:05:26;;;;;;;25.83;12.50;;;5.80;99.90;;;;;;5041153;28;20243;-77
2022/01/15 09:07:54;;;;;;;29.03;13.73;;;5.80;99.90;;;;;;5025414;28;20384;-78
2022/01/15 09:10:20;;;;;;;28.20;13.73;;;5.80;99.90;;;;;;5021886;28;20044;-77
2022/01/15 09:12:46;;;;;;;27.37;13.77;;;5.80;99.90;;;;;;5029676;28;20055;-77
2022/01/15 09:15:13;;;;;;;29.37;13.83;;;5.80;99.90;;;;;;5036299;28;20557;-78
2022/01/15 09:17:38;;;;;;;30.63;13.57;;;5.80;99.90;;;;;;5036194;28;20045;-77
2022/01/15 09:20:05;;;;;;;31.00;14.17;;;5.90;99.90;;;;;;5039883;28;20119;-78
2022/01/15 09:22:31;;;;;;;30.90;15.07;;;5.90;99.90;;;;;;5037941;28;20115;-78
2022/01/15 09:24:58;;;;;;;35.30;16.27;;;5.90;99.90;;;;;;5036119;28;20566;-77
2022/01/15 09:30:12;;;;;;;31.38;15.55;;;5.80;99.90;;;;;;5044659;28;20544;-78
2022/01/15 09:32:38;;;;;;;35.07;15.57;;;5.80;99.90;;;;;;5024416;28;20068;-77
2022/01/15 09:35:04;;;;;;;36.83;17.13;;;5.80;99.90;;;;;;5054033;28;20407;-77
2022/01/15 09:37:30;;;;;;;34.77;17.83;;;5.80;99.90;;;;;;5023032;28;20064;-78
2022/01/15 09:39:58;;;;;;;33.90;15.83;;;5.80;99.90;;;;;;5044261;28;20067;-77
2022/01/15 09:42:24;;;;;;;29.43;15.57;;;5.80;99.90;;;;;;5042327;28;20083;-78
2022/01/15 09:44:52;;;;;;;31.73;16.00;;;5.80;99.90;;;;;;5016883;28;20041;-78
2022/01/15 09:47:20;;;;;;;28.93;15.87;;;5.80;99.90;;;;;;5004663;28;20048;-78
2022/01/15 09:49:46;;;;;;;29.97;15.03;;;5.80;99.90;;;;;;5023396;28;20045;-78
2022/01/15 09:52:12;;;;;;;27.33;15.40;;;5.80;99.90;;;;;;5030038;28;20053;-77
2022/01/15 09:54:39;;;;;;;34.10;16.67;;;5.80;99.90;;;;;;5044805;28;20053;-79
2022/01/15 09:57:06;;;;;;;39.80;18.37;;;5.70;99.90;;;;;;5044380;28;20124;-77
2022/01/15 09:59:32;;;;;;;41.27;19.47;;;5.70;99.90;;;;;;5041881;28;20049;-77
2022/01/15 10:02:02;;;;;;;41.20;19.37;;;5.70;99.90;;;;;;5028719;28;20040;-78
2022/01/15 10:04:31;;;;;;;40.43;19.20;;;5.70;99.90;;;;;;5027781;28;20504;-78
2022/01/15 10:07:12;;;;;;;39.07;18.83;;;5.70;99.90;;;;;;5037430;28;20133;-77
2022/01/15 10:09:39;;;;;;;41.70;18.83;;;5.70;99.90;;;;;;5032255;28;20087;-77
2022/01/15 10:12:07;;;;;;;49.13;20.27;;;5.80;99.90;;;;;;5032845;28;20048;-78
2022/01/15 10:14:35;;;;;;;40.27;20.27;;;5.80;99.90;;;;;;5032578;28;20075;-77
2022/01/15 10:17:17;;;;;;;35.63;18.20;;;5.80;99.90;;;;;;5034634;28;20045;-77
2022/01/15 10:19:43;;;;;;;34.07;17.57;;;5.80;99.90;;;;;;5042641;28;21516;-78
2022/01/15 10:22:10;;;;;;;30.07;17.00;;;5.70;99.90;;;;;;5041957;28;20048;-78
2022/01/15 10:24:37;;;;;;;32.80;18.53;;;5.80;99.90;;;;;;5016418;28;20078;-77
2022/01/15 10:27:21;;;;;;;34.20;19.70;;;5.80;99.90;;;;;;5025437;28;20407;-78
2022/01/15 10:29:59;;;;;;;34.30;19.70;;;5.80;99.90;;;;;;5036231;28;20519;-78
2022/01/15 10:32:26;;;;;;;28.33;17.57;;;5.70;99.90;;;;;;5028554;28;20127;-78
2022/01/15 10:34:52;;;;;;;26.50;15.87;;;5.70;99.90;;;;;;5036639;28;20068;-77
2022/01/15 10:37:21;;;;;;;26.93;16.77;;;5.70;99.90;;;;;;5034215;28;20044;-77
2022/01/15 10:39:58;;;;;;;26.20;15.97;;;5.70;99.90;;;;;;5004392;28;20045;-78
2022/01/15 10:42:26;;;;;;;27.10;16.50;;;5.70;99.90;;;;;;5010462;28;20075;-78
2022/01/15 10:44:53;;;;;;;26.87;17.40;;;5.60;99.90;;;;;;5024298;28;20051;-78
2022/01/15 10:47:21;;;;;;;31.83;18.07;;;5.60;99.90;;;;;;5040707;28;20029;-77
2022/01/15 10:49:49;;;;;;;28.23;17.37;;;5.60;99.90;;;;;;5005359;28;20052;-77
2022/01/15 10:52:17;;;;;;;32.80;19.87;;;5.60;99.90;;;;;;5038033;28;20042;-77
2022/01/15 10:54:59;;;;;;;32.60;20.33;;;5.60;99.90;;;;;;5025435;28;20040;-77
2022/01/15 10:57:30;;;;;;;32.90;20.67;;;5.50;99.90;;;;;;5038478;28;20511;-78
2022/01/15 10:59:58;;;;;;;36.80;21.33;;;5.60;99.90;;;;;;5021959;28;20099;-77
2022/01/15 11:02:24;;;;;;;33.57;19.93;;;5.60;99.90;;;;;;5040796;28;20124;-78
2022/01/15 11:04:50;;;;;;;35.27;20.63;;;5.50;99.90;;;;;;5041871;28;20125;-77
2022/01/15 11:07:17;;;;;;;35.97;20.27;;;5.50;99.90;;;;;;5035459;28;20049;-79
2022/01/15 11:09:45;;;;;;;36.33;21.73;;;5.60;99.90;;;;;;5038511;28;20067;-80
2022/01/15 11:12:12;;;;;;;33.37;21.60;;;5.60;99.90;;;;;;5036260;28;20086;-78
2022/01/15 11:14:39;;;;;;;37.93;21.67;;;5.60;99.90;;;;;;5033829;28;20487;-79
2022/01/15 11:17:06;;;;;;;36.57;21.37;;;5.60;99.90;;;;;;5018470;28;20064;-76
2022/01/15 11:19:33;;;;;;;37.73;21.70;;;5.60;99.90;;;;;;5038277;28;20083;-79
2022/01/15 11:22:00;;;;;;;35.23;20.77;;;5.60;99.90;;;;;;5022515;28;20495;-78
2022/01/15 11:24:25;;;;;;;39.07;21.97;;;5.60;99.90;;;;;;5036309;28;20426;-77
2022/01/15 11:26:55;;;;;;;35.70;21.00;;;5.60;99.90;;;;;;5020237;28;20055;-78
2022/01/15 11:29:20;;;;;;;44.77;23.33;;;5.60;99.90;;;;;;5012519;28;20048;-78
2022/01/15 11:31:51;;;;;;;36.43;22.03;;;5.60;99.90;;;;;;5037691;28;20041;-78
2022/01/15 11:34:19;;;;;;;37.53;21.53;;;5.60;99.90;;;;;;5035024;28;20049;-77
2022/01/15 11:36:46;;;;;;;38.93;21.93;;;5.60;99.90;;;;;;5015083;28;20045;-78
2022/01/15 11:39:14;;;;;;;39.07;22.30;;;5.70;99.90;;;;;;5029570;28;20045;-78
2022/01/15 11:41:42;;;;;;;36.80;20.73;;;5.70;99.90;;;;;;5035638;28;20113;-76
2022/01/15 11:44:14;;;;;;;37.57;21.43;;;5.70;99.90;;;;;;5009270;28;20053;-78
2022/01/15 11:46:43;;;;;;;30.83;18.03;;;5.70;99.90;;;;;;5034420;28;20049;-78
2022/01/15 11:49:45;;;;;;;31.20;18.93;;;5.70;99.90;;;;;;5038944;28;20489;-78
2022/01/15 11:52:41;;;;;;;35.57;19.60;;;5.60;99.90;;;;;;4953322;28;20054;-80
2022/01/15 11:55:21;;;;;;;35.17;20.47;;;5.60;99.90;;;;;;4955027;28;20043;-79
2022/01/15 11:57:58;;;;;;;33.10;19.07;;;5.60;99.90;;;;;;4999320;28;20562;-78
2022/01/15 12:00:41;;;;;;;35.13;19.13;;;5.50;99.90;;;;;;5043525;28;20040;-79
2022/01/15 12:03:11;;;;;;;40.50;20.90;;;5.50;99.90;;;;;;5029715;28;20041;-77
2022/01/15 12:05:43;;;;;;;36.03;20.00;;;5.40;99.90;;;;;;5038265;28;20457;-79
2022/01/15 12:08:32;;;;;;;35.93;20.10;;;5.40;99.90;;;;;;5016857;28;20037;-78
2022/01/15 12:11:06;;;;;;;38.43;20.73;;;5.40;99.90;;;;;;5028029;28;20099;-79
2022/01/15 12:13:48;;;;;;;35.50;19.75;;;5.40;99.90;;;;;;5023448;28;20041;-79
2022/01/15 12:16:21;;;;;;;38.00;21.20;;;5.40;99.90;;;;;;5036589;28;20111;-77
2022/01/15 12:18:48;;;;;;;39.90;21.60;;;5.40;99.90;;;;;;5029452;28;20592;-77
2022/01/15 12:21:51;;;;;;;36.97;20.17;;;5.50;99.90;;;;;;5042674;28;20449;-77
2022/01/15 12:24:51;;;;;;;39.97;20.83;;;5.40;99.90;;;;;;5041163;28;20216;-76
2022/01/15 12:27:20;;;;;;;40.47;21.17;;;5.40;99.90;;;;;;5045081;28;20040;-77
2022/01/15 12:29:47;;;;;;;41.63;21.53;;;5.40;99.90;;;;;;5046096;28;20079;-77
2022/01/15 12:32:26;;;;;;;39.53;20.63;;;5.40;99.90;;;;;;5017721;28;20053;-77
2022/01/15 12:34:52;;;;;;;43.97;22.17;;;5.40;99.90;;;;;;5036228;28;20037;-77
2022/01/15 12:37:19;;;;;;;42.97;21.23;;;5.40;99.90;;;;;;5047582;28;20041;-77
2022/01/15 12:39:45;;;;;;;42.73;22.23;;;5.40;99.90;;;;;;5030646;28;20352;-76
2022/01/15 12:42:12;;;;;;;43.50;21.73;;;5.40;99.90;;;;;;5044212;28;20499;-77
2022/01/15 12:44:42;;;;;;;42.13;22.17;;;5.50;99.90;;;;;;5035077;28;20045;-77
2022/01/15 12:47:08;;;;;;;45.03;22.90;;;5.50;99.90;;;;;;5004659;28;20083;-77
2022/01/15 12:49:36;;;;;;;41.43;22.97;;;5.40;99.90;;;;;;5017999;28;20044;-77
2022/01/15 12:52:11;;;;;;;42.07;22.63;;;5.40;99.90;;;;;;5011964;28;20129;-77
2022/01/15 12:54:38;;;;;;;44.70;21.83;;;5.50;99.90;;;;;;5032673;28;20152;-77
2022/01/15 12:57:04;;;;;;;39.00;21.43;;;5.40;99.90;;;;;;5035058;28;20053;-77
2022/01/15 12:59:30;;;;;;;38.90;21.33;;;5.40;99.90;;;;;;5038282;28;20046;-77
2022/01/15 13:01:55;;;;;;;39.83;20.00;;;5.40;99.90;;;;;;5051467;28;20128;-77
2022/01/15 13:04:21;;;;;;;37.90;20.90;;;5.40;99.90;;;;;;5036861;28;20071;-77
2022/01/15 13:06:50;;;;;;;37.90;21.03;;;5.40;99.90;;;;;;5061898;28;20084;-77
2022/01/15 13:09:16;;;;;;;38.10;20.57;;;5.40;99.90;;;;;;5030061;28;20041;-77